Time;durP1;ratioP1;P1;durP2;ratioP2;P2;SDS_P1;SDS_P2;PMS_P1;PMS_P2;Temp;Humidity;BMP_temperature;BMP_pressure;BME280_temperature;BME280_humidity;BME280_pressure;Samples;Min_cycle;Max_cycle;Signal;HPM_P1;HPM_P2
2021/06/30 00:01:17;;;;;;;8.27;7.68;;;;;;;22.72;66.56;100788.94;6174515;28;20356;-55
2021/06/30 00:04:38;;;;;;;11.25;9.65;;;;;;;22.59;66.73;100784.38;6185300;28;20238;-53
2021/06/30 00:08:00;;;;;;;14.38;10.68;;;;;;;22.63;66.44;100789.53;6186047;28;20369;-54
2021/06/30 00:11:22;;;;;;;8.90;8.18;;;;;;;22.61;66.39;100779.00;6187320;28;21231;-53
2021/06/30 00:14:45;;;;;;;8.65;7.95;;;;;;;22.63;66.82;100776.25;6189345;28;20226;-50
2021/06/30 00:18:06;;;;;;;8.50;7.82;;;;;;;22.65;66.51;100771.72;6185391;28;20499;-54
2021/06/30 00:21:28;;;;;;;8.60;7.90;;;;;;;22.58;67.03;100773.88;6187621;28;20282;-51
2021/06/30 00:24:49;;;;;;;9.10;8.20;;;;;;;22.61;66.65;100765.72;6186408;28;20226;-52
2021/06/30 00:28:11;;;;;;;8.02;7.43;;;;;;;22.65;66.43;100767.25;6184528;28;20218;-51
2021/06/30 00:31:33;;;;;;;7.65;7.05;;;;;;;22.56;66.80;100763.34;6189051;28;20612;-50
2021/06/30 00:34:54;;;;;;;10.05;9.35;;;;;;;22.32;67.62;100765.66;6163052;28;20254;-54
2021/06/30 00:38:15;;;;;;;9.10;8.40;;;;;;;22.36;67.78;100763.69;6188135;28;20234;-54
2021/06/30 00:41:36;;;;;;;10.02;9.13;;;;;;;22.48;66.82;100762.09;6191737;28;20237;-54
2021/06/30 00:44:57;;;;;;;9.50;8.63;;;;;;;22.51;66.91;100754.81;6192701;28;20264;-53
2021/06/30 00:48:20;;;;;;;8.63;7.93;;;;;;;22.57;66.78;100748.28;6184492;28;20309;-55
2021/06/30 00:51:41;;;;;;;9.23;8.48;;;;;;;22.56;66.66;100749.22;6193303;28;20346;-51
2021/06/30 00:55:02;;;;;;;10.00;9.05;;;;;;;22.53;66.70;100742.31;6191649;28;20248;-51
2021/06/30 00:58:23;;;;;;;8.82;8.23;;;;;;;22.60;66.06;100741.00;6190468;28;20312;-55
2021/06/30 01:01:44;;;;;;;8.88;8.07;;;;;;;22.53;66.44;100731.69;6187347;28;20226;-54
2021/06/30 01:05:07;;;;;;;8.40;7.53;;;;;;;22.47;66.81;100739.16;6182026;28;20234;-50
2021/06/30 01:08:29;;;;;;;8.60;8.00;;;;;;;22.42;66.69;100734.97;6190944;28;20234;-55
2021/06/30 01:11:50;;;;;;;10.93;9.85;;;;;;;22.26;67.36;100733.34;6189577;28;20771;-53
2021/06/30 01:15:14;;;;;;;9.23;8.48;;;;;;;22.32;66.85;100728.53;6191210;28;20258;-54
2021/06/30 01:18:36;;;;;;;9.98;9.27;;;;;;;22.31;66.92;100734.75;6190691;28;20234;-54
2021/06/30 01:21:59;;;;;;;10.13;9.32;;;;;;;22.43;66.73;100730.56;6191173;28;20309;-53
2021/06/30 01:25:21;;;;;;;9.18;8.55;;;;;;;22.42;66.66;100726.19;6189868;28;20969;-56
2021/06/30 01:28:42;;;;;;;9.48;8.35;;;;;;;22.30;67.40;100724.28;6187422;28;20234;-54
2021/06/30 01:32:03;;;;;;;9.07;8.27;;;;;;;22.37;67.40;100726.47;6188982;28;20226;-50
2021/06/30 01:35:25;;;;;;;8.82;8.18;;;;;;;22.61;66.59;100723.28;6190016;28;20241;-49
2021/06/30 01:38:46;;;;;;;11.30;9.35;;;;;;;22.42;67.05;100728.81;6190210;28;20317;-51
2021/06/30 01:42:08;;;;;;;10.07;9.27;;;;;;;21.99;68.66;100737.50;6187696;28;20330;-50
2021/06/30 01:45:30;;;;;;;10.82;9.98;;;;;;;22.28;67.55;100731.47;6189437;28;20325;-52
2021/06/30 01:48:51;;;;;;;9.93;9.13;;;;;;;22.34;67.61;100739.06;6189529;28;20234;-51
2021/06/30 01:52:15;;;;;;;10.43;9.52;;;;;;;22.54;67.24;100741.34;6191387;28;20226;-51
2021/06/30 01:55:36;;;;;;;10.32;9.05;;;;;;;22.82;65.88;100745.00;6189892;28;20229;-51
2021/06/30 01:59:01;;;;;;;9.52;8.77;;;;;;;23.12;65.03;100744.91;6185079;28;20229;-53
2021/06/30 02:02:26;;;;;;;9.68;8.88;;;;;;;22.80;66.04;100750.38;6181050;28;20241;-51
2021/06/30 02:05:47;;;;;;;9.95;9.10;;;;;;;22.52;66.84;100751.19;6194448;28;20540;-52
2021/06/30 02:09:11;;;;;;;9.60;8.90;;;;;;;22.57;66.58;100750.94;6187622;28;20565;-55
2021/06/30 02:12:32;;;;;;;20.13;18.42;;;;;;;22.60;66.66;100756.94;6186312;28;20229;-53
2021/06/30 02:15:54;;;;;;;25.58;23.38;;;;;;;22.09;68.90;100764.31;6187053;28;20237;-53
2021/06/30 02:19:15;;;;;;;31.52;28.65;;;;;;;22.03;68.99;100759.38;6194300;28;20233;-51
2021/06/30 02:22:38;;;;;;;31.10;28.20;;;;;;;21.74;70.25;100756.59;6190021;28;20226;-55
2021/06/30 02:25:59;;;;;;;36.60;32.83;;;;;;;21.37;72.19;100755.97;6183276;28;20222;-52
2021/06/30 02:29:20;;;;;;;37.85;33.63;;;;;;;21.17;72.71;100756.19;6183066;28;20237;-53
2021/06/30 02:32:52;;;;;;;40.35;36.38;;;;;;;21.48;71.97;100751.91;6186816;28;20278;-54
2021/06/30 02:36:13;;;;;;;37.13;33.13;;;;;;;21.82;70.41;100754.34;6187282;28;20316;-55
2021/06/30 02:39:34;;;;;;;35.92;32.33;;;;;;;21.66;70.70;100742.94;6183953;28;20233;-55
2021/06/30 02:42:56;;;;;;;35.53;31.73;;;;;;;21.71;70.25;100748.81;6193842;28;20242;-54
2021/06/30 02:46:17;;;;;;;37.38;33.40;;;;;;;21.39;71.42;100745.31;6183151;28;20312;-54
2021/06/30 02:49:39;;;;;;;34.95;31.35;;;;;;;21.74;69.74;100738.06;6182232;28;20245;-52
2021/06/30 02:53:00;;;;;;;37.40;33.38;;;;;;;21.73;70.02;100746.97;6179036;28;20234;-53
2021/06/30 02:56:21;;;;;;;35.83;32.28;;;;;;;22.02;68.97;100741.75;6186872;28;20233;-53
2021/06/30 02:59:42;;;;;;;49.90;44.70;;;;;;;21.87;69.47;100746.16;6185851;28;20229;-54
2021/06/30 03:03:03;;;;;;;41.17;35.72;;;;;;;21.53;70.40;100734.81;6187852;28;20238;-49
2021/06/30 03:06:25;;;;;;;42.42;37.85;;;;;;;22.05;68.99;100735.44;6185826;28;20234;-50
2021/06/30 03:09:46;;;;;;;43.05;37.85;;;;;;;21.85;69.88;100736.56;6183991;28;20229;-52
2021/06/30 03:13:07;;;;;;;45.22;39.75;;;;;;;21.73;70.35;100732.81;6179776;28;20245;-54
2021/06/30 03:16:28;;;;;;;42.85;38.13;;;;;;;21.95;69.64;100732.47;6187635;28;20237;-51
2021/06/30 03:19:49;;;;;;;37.53;33.58;;;;;;;22.01;69.39;100732.09;6188468;28;20222;-52
2021/06/30 03:23:11;;;;;;;45.92;39.63;;;;;;;21.92;69.69;100736.13;6186839;28;20230;-50
2021/06/30 03:26:32;;;;;;;40.95;36.58;;;;;;;21.94;69.06;100744.00;6188328;28;20238;-51
2021/06/30 03:29:53;;;;;;;42.35;37.75;;;;;;;22.07;68.50;100734.41;6182968;28;20242;-54
2021/06/30 03:33:14;;;;;;;37.22;33.15;;;;;;;22.16;68.56;100741.81;6187136;28;20237;-56
2021/06/30 03:36:35;;;;;;;37.35;33.10;;;;;;;22.02;68.70;100737.31;6175723;28;20241;-51
2021/06/30 03:39:57;;;;;;;38.22;34.10;;;;;;;22.40;67.34;100728.91;6181550;28;20238;-52
2021/06/30 03:43:18;;;;;;;39.88;35.63;;;;;;;22.50;67.18;100733.69;6189466;28;20670;-49
2021/06/30 03:46:40;;;;;;;37.10;33.20;;;;;;;22.56;66.82;100735.94;6184270;28;20233;-56
2021/06/30 03:50:01;;;;;;;34.53;30.58;;;;;;;21.94;68.23;100739.53;6179167;28;20237;-54
2021/06/30 03:53:22;;;;;;;34.50;30.85;;;;;;;21.95;67.69;100745.72;6187193;28;20249;-55
2021/06/30 03:56:44;;;;;;;31.67;28.42;;;;;;;22.19;66.45;100752.22;6187155;28;20229;-51
2021/06/30 04:00:06;;;;;;;29.40;26.52;;;;;;;22.12;65.82;100737.63;6181604;28;20225;-52
2021/06/30 04:03:33;;;;;;;30.55;27.40;;;;;;;22.17;65.66;100745.31;6188357;28;20307;-50
2021/06/30 04:06:54;;;;;;;27.80;25.05;;;;;;;22.11;66.05;100756.28;6185361;28;20229;-55
2021/06/30 04:10:16;;;;;;;26.25;23.85;;;;;;;21.93;65.75;100752.91;6189246;28;20238;-54
2021/06/30 04:13:38;;;;;;;28.10;25.33;;;;;;;22.31;64.84;100758.63;6193260;28;20242;-53
2021/06/30 04:17:00;;;;;;;24.88;22.48;;;;;;;22.25;64.34;100755.50;6180961;28;20237;-54
2021/06/30 04:20:21;;;;;;;24.98;22.73;;;;;;;22.49;63.19;100746.09;6191485;28;20249;-53
2021/06/30 04:23:42;;;;;;;21.65;19.60;;;;;;;22.63;63.20;100747.06;6192438;28;20238;-54
2021/06/30 04:27:03;;;;;;;26.60;24.00;;;;;;;22.86;62.04;100732.38;6188765;28;20234;-53
2021/06/30 04:30:25;;;;;;;25.17;22.77;;;;;;;22.71;62.24;100739.47;6185609;28;20287;-53
2021/06/30 04:33:46;;;;;;;25.75;23.35;;;;;;;22.72;62.71;100742.06;6190927;28;20513;-55
2021/06/30 04:37:07;;;;;;;26.73;24.15;;;;;;;22.75;62.57;100739.19;6190981;28;20237;-54
2021/06/30 04:40:28;;;;;;;26.13;23.60;;;;;;;22.85;62.34;100747.44;6185951;28;20675;-52
2021/06/30 04:43:49;;;;;;;22.30;20.42;;;;;;;22.84;62.61;100743.09;6191110;28;20229;-49
2021/06/30 04:47:11;;;;;;;25.45;23.25;;;;;;;22.69;62.41;100742.22;6187947;28;20246;-54
2021/06/30 04:50:32;;;;;;;24.17;22.08;;;;;;;22.94;61.68;100730.94;6190475;28;20253;-54
2021/06/30 04:53:53;;;;;;;21.10;19.35;;;;;;;22.92;61.76;100727.53;6191209;28;20255;-51
2021/06/30 04:57:14;;;;;;;24.42;22.23;;;;;;;22.67;62.35;100730.84;6190228;28;20242;-53
2021/06/30 05:00:35;;;;;;;23.30;21.33;;;;;;;22.79;61.70;100737.22;6187002;28;20230;-52
2021/06/30 05:03:58;;;;;;;22.63;20.70;;;;;;;22.98;61.06;100732.47;6185932;28;20233;-50
2021/06/30 05:07:19;;;;;;;24.50;22.50;;;;;;;22.78;61.31;100736.34;6190241;28;20819;-54
2021/06/30 05:10:39;;;;;;;22.90;21.05;;;;;;;22.45;62.15;100749.88;6185135;28;20249;-51
2021/06/30 05:14:00;;;;;;;22.20;20.40;;;;;;;22.72;61.91;100749.13;6176570;28;20230;-53
2021/06/30 05:17:22;;;;;;;23.33;21.48;;;;;;;22.59;61.73;100751.69;6187752;28;20233;-55
2021/06/30 05:20:45;;;;;;;23.40;21.50;;;;;;;22.75;61.74;100755.13;6183611;28;20317;-53
2021/06/30 05:24:06;;;;;;;24.85;22.50;;;;;;;22.97;61.14;100744.03;6190709;28;20234;-52
2021/06/30 05:27:27;;;;;;;24.08;22.17;;;;;;;22.84;61.45;100743.09;6187007;28;20627;-54
2021/06/30 05:30:49;;;;;;;26.80;24.45;;;;;;;22.48;62.58;100739.06;6186801;28;20237;-54
2021/06/30 05:34:09;;;;;;;31.75;28.85;;;;;;;22.57;62.58;100740.31;6189824;28;20324;-50
2021/06/30 05:37:32;;;;;;;23.35;21.35;;;;;;;22.71;61.96;100740.31;6187086;28;20233;-63
2021/06/30 05:40:53;;;;;;;25.95;23.88;;;;;;;22.43;62.50;100730.56;6181589;28;21902;-63
2021/06/30 05:44:15;;;;;;;26.27;24.08;;;;;;;22.84;61.96;100726.28;6181979;28;20250;-62
2021/06/30 05:47:36;;;;;;;27.13;24.65;;;;;;;22.74;61.77;100728.66;6185375;28;20612;-62
2021/06/30 05:50:57;;;;;;;24.83;22.73;;;;;;;22.50;62.52;100731.88;6190076;28;20516;-63
2021/06/30 05:54:19;;;;;;;27.25;24.92;;;;;;;22.82;61.45;100737.03;6189325;28;23569;-62
2021/06/30 05:57:40;;;;;;;26.20;24.00;;;;;;;22.97;61.38;100733.44;6187065;28;20592;-63
2021/06/30 06:01:02;;;;;;;31.85;28.52;;;;;;;23.18;60.90;100738.34;6188679;28;20238;-63
2021/06/30 06:04:23;;;;;;;31.75;28.50;;;;;;;22.78;61.92;100738.16;6180540;28;20580;-62
2021/06/30 06:07:44;;;;;;;97.80;40.38;;;;;;;23.14;60.96;100732.38;6174809;28;21390;-54
2021/06/30 06:11:10;;;;;;;47.67;27.45;;;;;;;23.11;60.97;100731.72;6181319;28;20230;-54
2021/06/30 06:14:31;;;;;;;25.65;23.55;;;;;;;22.93;60.52;100723.91;6185969;28;20896;-52
2021/06/30 06:17:52;;;;;;;22.15;20.35;;;;;;;23.07;59.08;100724.88;6184710;28;20836;-53
2021/06/30 06:21:14;;;;;;;24.95;22.67;;;;;;;23.42;58.95;100729.75;6180463;28;20261;-52
2021/06/30 06:24:35;;;;;;;22.60;20.65;;;;;;;23.37;59.37;100722.09;6177969;28;20244;-51
2021/06/30 06:27:57;;;;;;;23.70;21.63;;;;;;;23.65;57.73;100725.63;6176223;28;20250;-51
2021/06/30 06:31:19;;;;;;;20.02;18.20;;;;;;;23.76;58.04;100729.28;6176425;28;20242;-52
2021/06/30 06:34:40;;;;;;;22.45;20.65;;;;;;;23.67;57.99;100721.94;6183537;28;20324;-54
2021/06/30 06:38:01;;;;;;;23.13;20.95;;;;;;;23.91;57.65;100729.25;6169731;28;20237;-63
2021/06/30 06:41:22;;;;;;;22.50;20.55;;;;;;;24.05;57.35;100723.88;6181210;28;20708;-64
2021/06/30 06:44:45;;;;;;;25.05;22.85;;;;;;;23.96;57.59;100719.16;6159823;28;20230;-65
2021/06/30 06:48:06;;;;;;;19.58;17.98;;;;;;;24.06;57.32;100728.25;6179714;28;20229;-55
2021/06/30 06:51:27;;;;;;;20.30;18.45;;;;;;;24.17;56.73;100736.34;6180983;28;20230;-50
2021/06/30 06:54:48;;;;;;;24.73;22.35;;;;;;;24.07;57.94;100735.25;6180385;28;20230;-50
2021/06/30 06:58:09;;;;;;;25.02;23.02;;;;;;;23.98;58.45;100738.50;6182885;28;20609;-56
2021/06/30 07:05:30;;;;;;;24.45;22.15;;;;;;;23.75;59.06;100729.41;6180984;28;20220;-52
2021/06/30 07:08:51;;;;;;;24.23;22.13;;;;;;;23.59;59.74;100727.75;6185737;28;20233;-53
2021/06/30 07:12:12;;;;;;;24.77;22.77;;;;;;;23.70;59.30;100737.66;6196098;28;20230;-54
2021/06/30 07:15:33;;;;;;;22.70;20.60;;;;;;;23.65;59.36;100747.75;6199474;28;20261;-54
2021/06/30 07:18:54;;;;;;;23.42;20.45;;;;;;;23.75;59.09;100748.84;6184899;28;20244;-54
2021/06/30 07:22:16;;;;;;;23.42;21.52;;;;;;;23.32;59.65;100751.63;6207712;28;20319;-50
2021/06/30 07:25:37;;;;;;;23.92;21.83;;;;;;;23.37;60.19;100754.81;6207585;28;20232;-55
2021/06/30 07:28:58;;;;;;;24.65;22.55;;;;;;;23.26;60.71;100757.31;6207638;28;20590;-48
2021/06/30 07:32:19;;;;;;;24.73;22.73;;;;;;;23.39;60.98;100757.41;6201848;28;20237;-55
2021/06/30 07:35:40;;;;;;;24.08;21.95;;;;;;;23.89;59.03;100760.44;6207082;28;20237;-53
2021/06/30 07:39:04;;;;;;;22.30;20.50;;;;;;;23.62;59.52;100773.69;6201923;28;20324;-56
2021/06/30 07:42:24;;;;;;;21.15;19.40;;;;;;;23.59;60.05;100766.75;6194946;28;20236;-55
2021/06/30 07:45:45;;;;;;;21.25;19.50;;;;;;;23.61;60.00;100770.16;6210124;28;20237;-51
2021/06/30 07:49:07;;;;;;;21.63;19.90;;;;;;;23.52;60.48;100760.97;6207605;28;20355;-53
2021/06/30 07:52:28;;;;;;;20.35;18.75;;;;;;;23.84;59.42;100758.06;6216444;28;20229;-52
2021/06/30 07:55:51;;;;;;;19.77;18.08;;;;;;;23.73;60.13;100766.72;6210251;28;20614;-69
2021/06/30 07:59:13;;;;;;;17.83;16.35;;;;;;;23.67;59.49;100756.47;6202549;28;20237;-66
2021/06/30 08:02:35;;;;;;;22.75;20.83;;;;;;;23.23;60.63;100762.84;6207841;28;20237;-65
2021/06/30 08:05:56;;;;;;;23.75;21.83;;;;;;;23.25;60.39;100766.25;6207908;28;20240;-67
2021/06/30 08:09:17;;;;;;;18.65;17.15;;;;;;;23.73;59.88;100766.72;6204488;28;20323;-67
2021/06/30 08:12:39;;;;;;;26.27;24.00;;;;;;;23.83;58.78;100760.84;6207732;28;20241;-66
2021/06/30 08:16:00;;;;;;;23.80;21.77;;;;;;;23.83;58.74;100760.84;6220430;28;20233;-67
2021/06/30 08:19:22;;;;;;;21.55;19.63;;;;;;;23.77;58.74;100760.25;6201462;28;20312;-66
2021/06/30 08:22:43;;;;;;;24.88;22.88;;;;;;;24.00;59.08;100773.88;6212506;28;20229;-66
2021/06/30 08:26:06;;;;;;;24.52;22.42;;;;;;;24.02;58.44;100768.44;6199079;28;20641;-67
2021/06/30 08:29:28;;;;;;;21.80;19.77;;;;;;;24.25;58.25;100769.56;6208905;28;20237;-69
2021/06/30 08:32:49;;;;;;;26.65;24.17;;;;;;;23.63;59.10;100768.25;6209883;28;20233;-67
2021/06/30 08:36:10;;;;;;;26.42;23.88;;;;;;;23.77;58.93;100772.69;6196583;28;20800;-63
2021/06/30 08:39:31;;;;;;;25.08;22.77;;;;;;;23.18;60.92;100779.03;6210983;28;20801;-63
2021/06/30 08:42:52;;;;;;;23.83;21.80;;;;;;;23.61;59.42;100778.13;6206978;28;20494;-65
2021/06/30 08:46:18;;;;;;;23.83;21.70;;;;;;;24.00;57.90;100778.31;6211085;28;20222;-63
2021/06/30 08:49:42;;;;;;;20.65;18.55;;;;;;;24.86;55.68;100778.69;6208344;28;20630;-66
2021/06/30 08:53:03;;;;;;;18.23;16.63;;;;;;;24.96;55.44;100771.75;6200226;28;20249;-64
2021/06/30 08:56:30;;;;;;;17.80;16.27;;;;;;;25.44;53.97;100772.91;6209035;28;20256;-64
2021/06/30 08:59:52;;;;;;;21.83;19.38;;;;;;;23.70;57.93;100777.53;6208670;28;20256;-63
2021/06/30 09:03:16;;;;;;;16.58;15.18;;;;;;;25.04;55.14;100779.22;6212745;28;20233;-64
2021/06/30 09:06:37;;;;;;;21.00;19.20;;;;;;;25.00;55.02;100776.88;6202877;28;20241;-64
2021/06/30 09:09:58;;;;;;;21.38;19.67;;;;;;;24.54;55.12;100776.47;6207345;28;20229;-64
2021/06/30 09:13:20;;;;;;;19.20;17.48;;;;;;;24.45;54.39;100784.19;6208501;28;20324;-63
2021/06/30 09:16:58;;;;;;;17.83;16.33;;;;;;;25.06;53.47;100773.78;6210240;28;20344;-64
2021/06/30 09:20:20;;;;;;;16.50;15.10;;;;;;;25.29;52.68;100770.38;6209216;28;20332;-62
2021/06/30 09:23:56;;;;;;;15.75;14.48;;;;;;;25.17;51.17;100778.38;6207561;28;20229;-64
2021/06/30 09:27:18;;;;;;;16.50;14.98;;;;;;;25.52;51.25;100776.69;6203352;28;20496;-64
2021/06/30 09:30:55;;;;;;;20.30;18.60;;;;;;;25.33;51.21;100779.84;6193054;28;20736;-65
2021/06/30 09:34:20;;;;;;;21.27;19.38;;;;;;;24.21;53.90;100774.22;6190842;28;20233;-64
2021/06/30 09:37:43;;;;;;;16.17;14.82;;;;;;;24.95;53.12;100772.75;6203430;28;20869;-65
2021/06/30 09:41:05;;;;;;;18.20;16.50;;;;;;;24.90;53.56;100769.53;6210586;28;20244;-63
2021/06/30 09:44:27;;;;;;;19.42;17.65;;;;;;;24.74;53.89;100779.56;6205378;28;20233;-66
2021/06/30 09:47:50;;;;;;;18.20;16.45;;;;;;;25.45;52.51;100779.91;6206089;28;20228;-65
2021/06/30 09:51:18;;;;;;;16.48;15.00;;;;;;;24.85;53.03;100784.97;6202361;28;20233;-64
2021/06/30 09:54:43;;;;;;;13.40;12.20;;;;;;;24.88;52.28;100786.59;6210399;28;20245;-65
2021/06/30 09:58:04;;;;;;;14.38;13.15;;;;;;;24.68;53.21;100780.84;6202757;28;20238;-64
2021/06/30 10:01:25;;;;;;;13.63;12.60;;;;;;;23.69;53.73;100788.25;6204686;28;20244;-63
2021/06/30 10:04:47;;;;;;;12.88;11.75;;;;;;;23.36;55.53;100782.38;6209656;28;20824;-64
2021/06/30 10:08:13;;;;;;;11.70;10.70;;;;;;;24.55;52.52;100780.81;6204361;28;20224;-63
2021/06/30 10:11:36;;;;;;;10.98;10.07;;;;;;;24.49;52.90;100781.22;6210598;28;21209;-63
2021/06/30 10:14:57;;;;;;;11.60;10.70;;;;;;;24.77;52.96;100780.19;6210328;28;20237;-66
2021/06/30 10:18:19;;;;;;;13.15;12.13;;;;;;;24.84;53.07;100775.28;6213021;28;20610;-64
2021/06/30 10:21:41;;;;;;;14.65;13.30;;;;;;;24.74;52.99;100772.41;6212795;28;20228;-64
2021/06/30 10:25:04;;;;;;;19.02;14.45;;;;;;;24.64;53.22;100774.03;6205363;28;20233;-64
2021/06/30 10:28:28;;;;;;;15.77;12.32;;;;;;;25.24;52.11;100772.53;6205721;28;20642;-64
2021/06/30 10:31:49;;;;;;;12.07;10.93;;;;;;;25.22;51.35;100755.78;6198701;28;20699;-64
2021/06/30 10:35:18;;;;;;;13.02;11.77;;;;;;;24.86;52.04;100764.53;6206330;28;20233;-65
2021/06/30 10:38:54;;;;;;;10.85;9.95;;;;;;;24.98;51.65;100765.50;6193955;28;20256;-63
2021/06/30 10:42:18;;;;;;;13.27;12.18;;;;;;;24.21;53.98;100765.41;6198341;28;21094;-64
2021/06/30 10:45:40;;;;;;;12.93;11.82;;;;;;;24.54;53.38;100757.84;6207598;28;20502;-64
2021/06/30 10:49:29;;;;;;;9.27;8.38;;;;;;;24.79;53.64;100765.91;6210340;28;20232;-65
2021/06/30 10:52:52;;;;;;;13.32;11.27;;;;;;;24.35;54.81;100762.69;6212040;28;20658;-65
2021/06/30 10:56:13;;;;;;;12.95;11.68;;;;;;;24.23;54.36;100752.84;6202065;28;20229;-64
2021/06/30 11:00:13;;;;;;;12.15;11.02;;;;;;;24.29;54.15;100753.31;6205903;28;20235;-65
2021/06/30 11:03:37;;;;;;;10.60;9.65;;;;;;;24.55;53.63;100742.72;6204789;28;20594;-65
2021/06/30 11:07:30;;;;;;;11.30;10.35;;;;;;;24.53;53.81;100740.13;6206795;28;20669;-63
2021/06/30 11:10:53;;;;;;;10.80;9.95;;;;;;;24.12;53.97;100741.13;6196077;28;20610;-65
2021/06/30 11:14:15;;;;;;;10.57;9.57;;;;;;;24.25;53.78;100746.44;6208781;28;20950;-65
2021/06/30 11:17:38;;;;;;;9.73;8.82;;;;;;;24.21;54.22;100744.97;6214488;28;20233;-65
2021/06/30 11:21:04;;;;;;;10.95;9.95;;;;;;;24.30;54.01;100746.16;6211037;28;20221;-65
2021/06/30 11:24:46;;;;;;;12.10;9.38;;;;;;;24.76;53.04;100743.03;6205650;28;20229;-66
2021/06/30 11:28:30;;;;;;;11.30;10.23;;;;;;;24.47;53.01;100737.88;6213547;28;20229;-66
2021/06/30 11:31:51;;;;;;;10.90;9.90;;;;;;;24.20;53.99;100739.75;6197116;28;20230;-66
2021/06/30 11:35:23;;;;;;;10.95;9.80;;;;;;;24.58;52.78;100741.63;6201032;28;20951;-65
2021/06/30 11:38:45;;;;;;;9.35;7.30;;;;;;;24.30;54.12;100743.50;6204147;28;20240;-63
2021/06/30 11:42:08;;;;;;;10.38;8.70;;;;;;;24.59;53.15;100749.53;6205511;28;20232;-64
2021/06/30 11:45:31;;;;;;;9.50;8.65;;;;;;;24.52;52.92;100751.75;6202473;28;20355;-66
2021/06/30 11:48:52;;;;;;;10.15;9.35;;;;;;;24.71;53.07;100763.78;6203204;28;20622;-66
2021/06/30 11:52:15;;;;;;;9.43;8.48;;;;;;;25.29;51.75;100765.03;6202962;28;20273;-64
2021/06/30 11:55:39;;;;;;;9.18;8.27;;;;;;;24.75;52.99;100775.94;6217623;28;20307;-64
2021/06/30 11:59:03;;;;;;;9.70;8.75;;;;;;;24.34;54.07;100771.59;6183382;28;20236;-64
2021/06/30 12:02:24;;;;;;;9.90;9.00;;;;;;;24.59;53.12;100775.28;6192461;28;20234;-63
2021/06/30 12:05:45;;;;;;;9.48;8.60;;;;;;;24.84;52.30;100785.94;6199731;28;20252;-63
2021/06/30 12:09:07;;;;;;;9.70;8.88;;;;;;;24.71;52.12;100793.06;6197446;28;20614;-64
2021/06/30 12:12:31;;;;;;;8.65;7.72;;;;;;;23.78;54.21;100796.53;6193520;28;20241;-64
2021/06/30 12:15:52;;;;;;;10.30;9.38;;;;;;;24.60;52.66;100804.44;6205230;28;20236;-65
2021/06/30 12:19:15;;;;;;;9.57;8.57;;;;;;;24.13;53.45;100796.03;6202024;28;20316;-65
2021/06/30 12:22:37;;;;;;;13.95;12.30;;;;;;;23.70;54.94;100792.63;6196594;28;20281;-66
2021/06/30 12:26:05;;;;;;;9.75;9.02;;;;;;;23.81;55.58;100786.63;6199440;28;20229;-64
2021/06/30 12:29:27;;;;;;;11.82;10.70;;;;;;;23.82;55.66;100785.69;6197210;28;20895;-66
2021/06/30 12:32:50;;;;;;;12.25;11.07;;;;;;;23.75;55.68;100771.94;6202426;28;20237;-65
2021/06/30 12:36:11;;;;;;;14.68;12.57;;;;;;;23.69;56.41;100759.91;6200290;28;20245;-60
2021/06/30 12:39:35;;;;;;;12.70;11.60;;;;;;;24.06;54.82;100754.84;6196547;28;20237;-60
2021/06/30 12:43:00;;;;;;;12.45;11.32;;;;;;;24.73;53.51;100751.22;6204260;28;20372;-65
2021/06/30 12:46:25;;;;;;;14.85;13.38;;;;;;;24.57;53.40;100751.44;6204451;28;20296;-65
2021/06/30 12:49:57;;;;;;;13.73;12.27;;;;;;;24.67;53.34;100747.16;6200350;28;20630;-65
2021/06/30 12:53:22;;;;;;;12.98;11.82;;;;;;;24.99;52.81;100746.75;6199782;28;20241;-65
2021/06/30 12:56:45;;;;;;;15.32;13.88;;;;;;;24.40;53.32;100754.38;6205422;28;20229;-64
2021/06/30 13:00:11;;;;;;;13.60;12.38;;;;;;;23.81;55.19;100754.72;6203547;28;20237;-66
2021/06/30 13:03:44;;;;;;;14.95;13.68;;;;;;;22.70;58.29;100759.88;6200250;28;20697;-66
2021/06/30 13:07:05;;;;;;;12.25;11.13;;;;;;;23.57;56.23;100760.66;6207702;28;20233;-66
2021/06/30 13:10:26;;;;;;;11.80;10.70;;;;;;;23.38;56.15;100771.66;6219353;28;20606;-65
2021/06/30 13:13:59;;;;;;;12.65;11.38;;;;;;;23.46;57.15;100768.47;6204265;28;20295;-68
2021/06/30 13:17:24;;;;;;;12.68;11.52;;;;;;;22.85;58.11;100774.00;6205744;28;20241;-68
2021/06/30 13:20:46;;;;;;;13.30;12.00;;;;;;;22.37;60.54;100790.13;6203565;28;20237;-64
2021/06/30 13:24:21;;;;;;;12.50;11.40;;;;;;;23.72;56.22;100786.25;6212619;28;20632;-64
2021/06/30 13:27:45;;;;;;;13.52;12.32;;;;;;;23.67;56.09;100777.75;6201356;28;20229;-61
2021/06/30 13:35:23;;;;;;;12.85;11.55;;;;;;;22.56;58.80;100783.72;6201774;28;20233;-63
2021/06/30 13:38:48;;;;;;;14.18;12.77;;;;;;;22.23;60.38;100782.09;6196741;28;20232;-63
2021/06/30 13:42:09;;;;;;;12.93;11.60;;;;;;;22.66;58.65;100779.56;6211920;28;20225;-63
2021/06/30 13:45:35;;;;;;;11.85;10.63;;;;;;;22.86;58.00;100794.28;6195494;28;20238;-64
2021/06/30 13:48:58;;;;;;;13.77;12.35;;;;;;;22.87;58.14;100785.38;6180648;28;20336;-63
2021/06/30 13:52:19;;;;;;;14.13;12.70;;;;;;;22.85;58.51;100797.03;6199041;28;20252;-63
2021/06/30 13:55:42;;;;;;;14.05;12.60;;;;;;;23.23;57.42;100805.34;6199409;28;20260;-63
2021/06/30 13:59:03;;;;;;;13.73;12.30;;;;;;;22.86;58.37;100802.25;6186955;28;20233;-63
2021/06/30 14:02:24;;;;;;;16.55;12.45;;;;;;;22.72;59.24;100799.56;6194111;28;20229;-63
2021/06/30 14:05:46;;;;;;;14.13;12.52;;;;;;;22.77;58.76;100808.97;6191190;28;20242;-62
2021/06/30 14:09:07;;;;;;;12.38;11.38;;;;;;;22.55;58.89;100814.72;6187065;28;20728;-64
2021/06/30 14:12:29;;;;;;;14.13;12.95;;;;;;;22.87;57.96;100824.34;6200267;28;20476;-63
2021/06/30 14:15:50;;;;;;;13.23;12.02;;;;;;;22.78;58.21;100805.38;6200561;28;20226;-63
2021/06/30 14:19:11;;;;;;;12.77;11.48;;;;;;;22.50;59.02;100800.84;6197899;28;20233;-63
2021/06/30 14:22:33;;;;;;;13.30;12.00;;;;;;;22.30;60.26;100806.50;6205873;28;20241;-64
2021/06/30 14:25:58;;;;;;;13.98;12.77;;;;;;;22.11;61.96;100782.81;6213021;28;20232;-65
2021/06/30 14:29:20;;;;;;;12.57;11.38;;;;;;;22.46;60.61;100778.09;6211488;28;20271;-64
2021/06/30 14:32:41;;;;;;;20.00;13.77;;;;;;;22.37;60.90;100779.53;6213740;28;20229;-63
2021/06/30 14:36:03;;;;;;;13.15;11.80;;;;;;;21.53;64.22;100784.31;6195969;28;20234;-64
2021/06/30 14:39:24;;;;;;;14.35;13.18;;;;;;;20.86;66.37;100789.63;6212188;28;20241;-63
2021/06/30 14:42:45;;;;;;;12.52;11.35;;;;;;;21.24;65.37;100803.47;6195597;28;20261;-64
2021/06/30 14:46:08;;;;;;;14.02;12.75;;;;;;;21.73;63.65;100818.50;6213306;28;20232;-64
2021/06/30 14:49:29;;;;;;;13.18;11.88;;;;;;;21.66;65.31;100817.13;6197681;28;20236;-64
2021/06/30 14:52:50;;;;;;;12.60;11.35;;;;;;;21.69;64.76;100816.94;6211627;28;20234;-63
2021/06/30 14:56:11;;;;;;;14.60;13.30;;;;;;;21.13;67.27;100818.22;6198170;28;20230;-64
2021/06/30 14:59:32;;;;;;;13.05;11.68;;;;;;;21.12;67.19;100813.88;6203714;28;20237;-64
2021/06/30 15:02:54;;;;;;;13.85;12.55;;;;;;;21.04;67.48;100812.47;6208236;28;20233;-65
2021/06/30 15:06:16;;;;;;;13.43;12.27;;;;;;;20.68;69.39;100806.47;6196081;28;20228;-65
2021/06/30 15:09:37;;;;;;;15.75;14.25;;;;;;;20.77;69.27;100808.63;6202249;28;20301;-64
2021/06/30 15:12:58;;;;;;;14.25;12.75;;;;;;;20.80;69.38;100803.16;6205204;28;20642;-65
2021/06/30 15:16:21;;;;;;;15.63;14.32;;;;;;;20.61;70.07;100788.25;6206504;28;20224;-65
2021/06/30 15:19:44;;;;;;;15.52;14.20;;;;;;;21.23;68.04;100779.72;6213387;28;20240;-65
2021/06/30 15:23:05;;;;;;;16.45;14.90;;;;;;;21.15;68.33;100789.84;6209009;28;20232;-64
2021/06/30 15:26:26;;;;;;;16.20;14.85;;;;;;;21.06;68.18;100798.31;6222546;28;20249;-64
2021/06/30 15:29:47;;;;;;;18.48;16.98;;;;;;;21.47;67.52;100798.75;6216011;28;20497;-64
2021/06/30 15:33:08;;;;;;;15.02;13.73;;;;;;;21.58;66.34;100790.22;6211664;28;20252;-64